createdAt,value
2022-11-24T00:00:01.260Z,1.40
2022-11-24T00:01:01.276Z,1.40
2022-11-24T00:02:01.368Z,1.20
2022-11-24T00:03:01.434Z,1.50
2022-11-24T00:04:01.339Z,1.60
2022-11-24T00:05:01.338Z,1.40
2022-11-24T00:06:01.357Z,1.40
2022-11-24T00:07:01.474Z,1.50
2022-11-24T00:08:01.391Z,1.40
2022-11-24T00:09:01.609Z,1.50
2022-11-24T00:10:01.442Z,1.40
2022-11-24T00:11:01.438Z,1.60
2022-11-24T00:12:01.456Z,1.30
2022-11-24T00:13:01.470Z,1.60
2022-11-24T00:14:01.490Z,1.40
2022-11-24T00:15:01.501Z,1.50
2022-11-24T00:16:01.522Z,1.50
2022-11-24T00:17:01.576Z,1.30
2022-11-24T00:18:01.550Z,1.40
2022-11-24T00:19:01.569Z,1.20
2022-11-24T00:20:01.581Z,1.60
2022-11-24T00:21:01.605Z,1.30
2022-11-24T00:22:01.620Z,1.20
2022-11-24T00:23:01.630Z,1.20
2022-11-24T00:24:01.650Z,1.30
2022-11-24T00:25:01.668Z,1.30
2022-11-24T00:26:01.705Z,1.40
2022-11-24T00:27:01.698Z,1.10
2022-11-24T00:28:01.714Z,1.30
2022-11-24T00:29:01.727Z,1.30
2022-11-24T00:30:01.745Z,1.20
2022-11-24T00:31:01.815Z,1.20
2022-11-24T00:32:01.775Z,1.40
2022-11-24T00:33:01.792Z,1.30
2022-11-24T00:34:01.808Z,1.20
2022-11-24T00:35:01.830Z,1.30
2022-11-24T00:36:01.842Z,1.20
2022-11-24T00:37:01.858Z,1.20
2022-11-24T00:38:01.873Z,1.30
2022-11-24T00:39:01.892Z,1.30
2022-11-24T00:40:01.903Z,1.20
2022-11-24T00:41:01.921Z,1.20
2022-11-24T00:42:01.954Z,1.20
2022-11-24T00:43:01.951Z,1.10
2022-11-24T00:44:01.969Z,1.10
2022-11-24T00:45:10.341Z,1.30
2022-11-24T00:46:02.155Z,1.20
2022-11-24T00:47:02.206Z,1.10
2022-11-24T00:48:02.041Z,1.20
2022-11-24T00:49:02.048Z,1.10
2022-11-24T00:50:02.099Z,1.20
2022-11-24T00:51:02.088Z,1.30
2022-11-24T00:52:02.104Z,1.10
2022-11-24T00:53:02.117Z,1.10
2022-11-24T00:54:02.127Z,1.10
2022-11-24T00:55:02.142Z,1.00
2022-11-24T00:56:02.161Z,1.00
2022-11-24T00:57:02.175Z,1.20
2022-11-24T00:58:02.209Z,1.00
2022-11-24T00:59:02.213Z,1.00
2022-11-24T01:00:02.227Z,1.20
2022-11-24T01:01:02.266Z,1.00
2022-11-24T01:02:02.323Z,1.00
2022-11-24T01:03:02.362Z,1.10
2022-11-24T01:04:02.289Z,0.90
2022-11-24T01:05:02.303Z,0.90
2022-11-24T01:06:02.319Z,0.90
2022-11-24T01:07:02.334Z,1.10
2022-11-24T01:08:02.350Z,1.00
2022-11-24T01:09:02.365Z,0.90
2022-11-24T01:10:02.384Z,0.90
2022-11-24T01:11:02.398Z,1.10
2022-11-24T01:12:02.419Z,1.00
2022-11-24T01:13:02.430Z,0.80
2022-11-24T01:14:02.471Z,0.90
2022-11-24T01:15:02.462Z,0.90
2022-11-24T01:16:02.595Z,1.00
2022-11-24T01:17:02.492Z,1.00
2022-11-24T01:18:02.509Z,0.90
2022-11-24T01:19:02.524Z,0.90
2022-11-24T01:20:02.544Z,0.90
2022-11-24T01:21:05.883Z,0.80
2022-11-24T01:22:02.571Z,0.90
2022-11-24T01:23:02.589Z,1.00
2022-11-24T01:24:02.606Z,0.90
2022-11-24T01:25:02.640Z,0.90
2022-11-24T01:26:02.637Z,0.80
2022-11-24T01:27:02.651Z,1.00
2022-11-24T01:28:02.669Z,0.80
2022-11-24T01:29:02.684Z,0.80
2022-11-24T01:30:02.718Z,0.80
2022-11-24T01:31:02.797Z,0.90
2022-11-24T01:32:02.730Z,0.80
2022-11-24T01:33:02.747Z,0.70
2022-11-24T01:34:02.763Z,0.70
2022-11-24T01:35:02.778Z,0.90
2022-11-24T01:36:02.794Z,1.10
2022-11-24T01:37:02.811Z,0.90
2022-11-24T01:38:02.824Z,0.80
2022-11-24T01:39:02.840Z,0.80
2022-11-24T01:40:02.892Z,0.80
2022-11-24T01:41:02.880Z,0.80
2022-11-24T01:42:02.888Z,0.80
2022-11-24T01:43:02.904Z,0.70
2022-11-24T01:44:02.927Z,0.60
2022-11-24T01:45:02.935Z,0.60
2022-11-24T01:46:03.005Z,0.80
2022-11-24T01:47:02.969Z,0.90
2022-11-24T01:48:02.985Z,0.70
2022-11-24T01:49:02.998Z,0.70
2022-11-24T01:50:03.016Z,0.90
2022-11-24T01:51:03.039Z,0.80
2022-11-24T01:52:03.047Z,0.80
2022-11-24T01:53:03.062Z,0.90
2022-11-24T01:54:03.078Z,0.80
2022-11-24T01:55:03.093Z,0.70
2022-11-24T01:56:03.108Z,0.80
2022-11-24T01:57:03.128Z,0.80
2022-11-24T01:58:03.144Z,0.70
2022-11-24T01:59:03.157Z,0.90
2022-11-24T02:00:03.169Z,0.80
2022-11-24T02:01:03.242Z,0.90
2022-11-24T02:02:03.298Z,0.70
2022-11-24T02:03:03.296Z,0.70
2022-11-24T02:04:03.234Z,0.90
2022-11-24T02:05:03.250Z,0.70
2022-11-24T02:06:03.265Z,0.80
2022-11-24T02:07:03.283Z,0.80
2022-11-24T02:08:03.295Z,0.60
2022-11-24T02:09:03.312Z,0.90
2022-11-24T02:10:03.334Z,0.90
2022-11-24T02:11:03.344Z,0.80
2022-11-24T02:12:03.361Z,0.90
2022-11-24T02:13:03.375Z,0.80
2022-11-24T02:14:03.391Z,0.70
2022-11-24T02:15:03.411Z,1.00
2022-11-24T02:16:03.586Z,0.90
2022-11-24T02:17:03.438Z,1.10
2022-11-24T02:18:03.480Z,1.00
2022-11-24T02:19:03.469Z,0.90
2022-11-24T02:20:03.494Z,0.90
2022-11-24T02:21:03.501Z,0.80
2022-11-24T02:22:03.520Z,0.90
2022-11-24T02:23:03.533Z,0.90
2022-11-24T02:24:03.551Z,0.90
2022-11-24T02:25:03.567Z,1.00
2022-11-24T02:26:03.580Z,0.90
2022-11-24T02:27:03.594Z,1.10
2022-11-24T02:28:03.613Z,0.90
2022-11-24T02:29:03.626Z,1.10
2022-11-24T02:30:03.645Z,1.00
2022-11-24T02:31:03.761Z,0.90
2022-11-24T02:32:03.676Z,1.10
2022-11-24T02:33:03.698Z,1.10
2022-11-24T02:34:03.724Z,0.80
2022-11-24T02:35:03.728Z,0.90
2022-11-24T02:36:03.736Z,0.80
2022-11-24T02:37:03.752Z,1.00
2022-11-24T02:38:03.770Z,0.90
2022-11-24T02:39:03.783Z,1.00
2022-11-24T02:40:03.796Z,1.10
2022-11-24T02:41:03.815Z,1.00
2022-11-24T02:42:03.829Z,1.00
2022-11-24T02:43:03.843Z,1.10
2022-11-24T02:44:03.864Z,1.10
2022-11-24T02:45:03.877Z,1.20
2022-11-24T02:46:03.954Z,1.20
2022-11-24T02:47:03.905Z,1.20
2022-11-24T02:48:03.921Z,1.30
2022-11-24T02:49:03.939Z,1.20
2022-11-24T02:50:03.980Z,1.20
2022-11-24T02:51:03.970Z,1.20
2022-11-24T02:52:03.986Z,1.30
2022-11-24T02:53:04.000Z,1.40
2022-11-24T02:54:04.016Z,1.30
2022-11-24T02:55:04.031Z,1.40
2022-11-24T02:56:04.047Z,1.40
2022-11-24T02:57:04.064Z,1.30
2022-11-24T02:58:04.080Z,1.40
2022-11-24T02:59:04.095Z,1.30
2022-11-24T03:00:04.109Z,1.30
2022-11-24T03:01:04.198Z,1.40
2022-11-24T03:02:04.213Z,1.30
2022-11-24T03:03:04.227Z,1.40
2022-11-24T03:04:04.172Z,1.30
2022-11-24T03:05:04.186Z,1.40
2022-11-24T03:06:04.221Z,1.50
2022-11-24T03:07:04.219Z,1.30
2022-11-24T03:08:04.237Z,1.40
2022-11-24T03:09:04.250Z,1.40
2022-11-24T03:10:04.264Z,1.50
2022-11-24T03:11:04.282Z,1.30
2022-11-24T03:12:04.301Z,1.40
2022-11-24T03:13:04.417Z,1.30
2022-11-24T03:14:04.332Z,1.50
2022-11-24T03:15:04.341Z,1.40
2022-11-24T03:16:04.393Z,1.50
2022-11-24T03:17:04.374Z,1.50
2022-11-24T03:18:04.391Z,1.80
2022-11-24T03:19:04.404Z,1.60
2022-11-24T03:20:05.311Z,1.40
2022-11-24T03:21:04.435Z,1.70
2022-11-24T03:22:04.471Z,1.60
2022-11-24T03:23:04.467Z,1.50
2022-11-24T03:24:04.485Z,1.60
2022-11-24T03:25:04.497Z,1.50
2022-11-24T03:26:04.513Z,1.60
2022-11-24T03:27:04.530Z,1.60
2022-11-24T03:28:04.544Z,1.60
2022-11-24T03:29:04.558Z,1.50
2022-11-24T03:30:04.575Z,1.50
2022-11-24T03:31:04.611Z,1.60
2022-11-24T03:32:04.605Z,1.60
2022-11-24T03:33:04.621Z,1.50
2022-11-24T03:34:04.638Z,1.80
2022-11-24T03:35:04.651Z,1.70
2022-11-24T03:36:04.667Z,1.80
2022-11-24T03:37:04.683Z,1.90
2022-11-24T03:38:04.716Z,1.90
2022-11-24T03:39:04.715Z,1.60
2022-11-24T03:40:04.729Z,1.90
2022-11-24T03:41:04.745Z,1.80
2022-11-24T03:42:04.762Z,1.80
2022-11-24T03:43:04.774Z,1.70
2022-11-24T03:44:04.792Z,2.00
2022-11-24T03:45:29.770Z,1.90
2022-11-24T03:46:04.835Z,1.90
2022-11-24T03:47:04.844Z,1.90
2022-11-24T03:48:04.851Z,1.90
2022-11-24T03:49:04.866Z,2.00
2022-11-24T03:50:04.889Z,1.90
2022-11-24T03:51:04.900Z,1.90
2022-11-24T03:52:08.054Z,1.70
2022-11-24T03:53:04.930Z,2.00
2022-11-24T03:54:04.964Z,1.80
2022-11-24T03:55:04.964Z,1.80
2022-11-24T03:56:04.975Z,2.00
2022-11-24T03:57:04.989Z,1.90
2022-11-24T03:58:05.006Z,1.90
2022-11-24T03:59:05.019Z,1.90
2022-11-24T04:00:05.038Z,1.90
2022-11-24T04:01:05.060Z,1.80
2022-11-24T04:02:05.162Z,1.90
2022-11-24T04:03:05.152Z,1.90
2022-11-24T04:04:05.096Z,1.80
2022-11-24T04:05:05.115Z,1.80
2022-11-24T04:06:05.132Z,2.00
2022-11-24T04:07:05.144Z,1.90
2022-11-24T04:08:05.159Z,1.90
2022-11-24T04:09:05.181Z,1.90
2022-11-24T04:10:05.208Z,1.90
2022-11-24T04:11:05.206Z,1.70
2022-11-24T04:12:05.222Z,1.60
2022-11-24T04:13:05.248Z,1.90
2022-11-24T04:14:10.453Z,1.90
2022-11-24T04:15:05.265Z,1.90
2022-11-24T04:16:05.322Z,1.80
2022-11-24T04:17:05.299Z,1.70
2022-11-24T04:18:05.314Z,1.80
2022-11-24T04:19:05.329Z,1.90
2022-11-24T04:20:05.343Z,1.80
2022-11-24T04:21:05.363Z,1.90
2022-11-24T04:22:05.375Z,1.90
2022-11-24T04:23:05.391Z,1.70
2022-11-24T04:24:05.407Z,1.80
2022-11-24T04:25:05.420Z,1.80
2022-11-24T04:26:05.456Z,1.80
2022-11-24T04:27:05.454Z,1.70
2022-11-24T04:28:05.468Z,1.80
2022-11-24T04:29:05.483Z,1.80
2022-11-24T04:30:05.498Z,1.90
2022-11-24T04:31:05.562Z,1.70
2022-11-24T04:32:05.526Z,1.80
2022-11-24T04:33:05.542Z,1.80
2022-11-24T04:34:05.560Z,1.70
2022-11-24T04:35:05.573Z,1.90
2022-11-24T04:36:05.589Z,1.90
2022-11-24T04:37:05.603Z,1.90
2022-11-24T04:38:05.623Z,1.90
2022-11-24T04:39:22.942Z,1.70
2022-11-24T04:40:05.649Z,1.80
2022-11-24T04:41:05.665Z,1.90
2022-11-24T04:42:05.701Z,1.80
2022-11-24T04:43:05.695Z,1.90
2022-11-24T04:44:05.709Z,1.60
2022-11-24T04:45:05.724Z,1.80
2022-11-24T04:46:05.820Z,1.80
2022-11-24T04:47:05.755Z,1.90
2022-11-24T04:48:05.772Z,1.70
2022-11-24T04:49:05.788Z,1.70
2022-11-24T04:50:05.802Z,1.70
2022-11-24T04:51:05.817Z,1.90
2022-11-24T04:52:05.833Z,1.80
2022-11-24T04:53:05.849Z,1.70
2022-11-24T04:54:05.863Z,1.90
2022-11-24T04:55:05.880Z,1.90
2022-11-24T04:56:05.894Z,1.90
2022-11-24T04:57:05.909Z,1.70
2022-11-24T04:58:05.941Z,1.80
2022-11-24T04:59:08.392Z,1.90
2022-11-24T05:00:05.958Z,1.90
2022-11-24T05:01:05.968Z,1.80
2022-11-24T05:02:06.011Z,1.90
2022-11-24T05:03:05.999Z,1.80
2022-11-24T05:04:06.047Z,1.70
2022-11-24T05:05:06.030Z,1.90
2022-11-24T05:06:06.045Z,1.80
2022-11-24T05:07:06.083Z,1.80
2022-11-24T05:08:06.075Z,1.80
2022-11-24T05:09:06.101Z,2.00
2022-11-24T05:10:06.146Z,1.70
2022-11-24T05:11:06.123Z,1.70
2022-11-24T05:12:06.136Z,1.80
2022-11-24T05:13:06.151Z,1.70
2022-11-24T05:14:06.188Z,1.90
2022-11-24T05:15:06.180Z,1.90
2022-11-24T05:16:06.267Z,1.90
2022-11-24T05:17:06.211Z,1.80
2022-11-24T05:18:06.233Z,1.80
2022-11-24T05:19:06.242Z,1.80
2022-11-24T05:20:06.256Z,1.70
2022-11-24T05:21:06.279Z,1.70
2022-11-24T05:22:06.293Z,1.80
2022-11-24T05:23:06.300Z,1.70
2022-11-24T05:24:06.325Z,1.90
2022-11-24T05:25:06.331Z,1.90
2022-11-24T05:26:06.355Z,1.70
2022-11-24T05:27:06.370Z,1.60
2022-11-24T05:28:06.386Z,1.70
2022-11-24T05:29:06.419Z,1.80
2022-11-24T05:30:06.439Z,1.70
2022-11-24T05:31:06.456Z,1.80
2022-11-24T05:32:06.446Z,1.80
2022-11-24T05:33:06.460Z,1.70
2022-11-24T05:34:06.476Z,1.70
2022-11-24T05:35:06.483Z,1.60
2022-11-24T05:36:06.503Z,1.70
2022-11-24T05:37:06.523Z,1.80
2022-11-24T05:38:06.528Z,1.80
2022-11-24T05:39:06.551Z,1.80
2022-11-24T05:40:06.565Z,1.80
2022-11-24T05:41:06.575Z,1.60
2022-11-24T05:42:06.597Z,1.80
2022-11-24T05:43:06.605Z,1.60
2022-11-24T05:44:06.627Z,1.90
2022-11-24T05:45:06.643Z,1.90
2022-11-24T05:46:06.675Z,1.80
2022-11-24T05:47:06.695Z,2.00
2022-11-24T05:48:06.678Z,1.90
2022-11-24T05:49:06.702Z,1.70
2022-11-24T05:50:06.710Z,1.80
2022-11-24T05:51:09.442Z,1.90
2022-11-24T05:52:06.746Z,1.90
2022-11-24T05:53:06.761Z,1.80
2022-11-24T05:54:06.778Z,1.90
2022-11-24T05:55:06.793Z,1.80
2022-11-24T05:56:06.806Z,1.80
2022-11-24T05:57:06.815Z,2.00
2022-11-24T05:58:06.831Z,2.00
2022-11-24T05:59:09.961Z,2.00
2022-11-24T06:00:06.867Z,1.70
2022-11-24T06:01:06.883Z,1.90
2022-11-24T06:02:07.032Z,2.10
2022-11-24T06:03:07.096Z,1.90
2022-11-24T06:04:06.935Z,2.00
2022-11-24T06:05:06.942Z,2.00
2022-11-24T06:06:06.956Z,1.90
2022-11-24T06:07:07.010Z,2.00
2022-11-24T06:08:06.979Z,1.90
2022-11-24T06:09:07.004Z,2.00
2022-11-24T06:10:07.014Z,2.00
2022-11-24T06:11:07.024Z,2.00
2022-11-24T06:12:07.048Z,2.10
2022-11-24T06:13:07.151Z,2.10
2022-11-24T06:14:11.093Z,1.90
2022-11-24T06:15:07.091Z,1.80
2022-11-24T06:16:07.187Z,1.90
2022-11-24T06:17:07.122Z,2.00
2022-11-24T06:18:07.160Z,1.80
2022-11-24T06:19:07.152Z,2.00
2022-11-24T06:20:07.168Z,1.80
2022-11-24T06:21:11.845Z,1.90
2022-11-24T06:22:07.197Z,2.10
2022-11-24T06:23:07.204Z,1.80
2022-11-24T06:24:07.228Z,1.90
2022-11-24T06:25:07.286Z,1.80
2022-11-24T06:26:07.261Z,1.80
2022-11-24T06:27:07.265Z,1.90
2022-11-24T06:28:07.278Z,1.90
2022-11-24T06:29:07.294Z,1.90
2022-11-24T06:30:07.310Z,2.00
2022-11-24T06:31:07.323Z,2.10
2022-11-24T06:32:07.445Z,2.00
2022-11-24T06:33:07.355Z,1.90
2022-11-24T06:34:07.402Z,1.80
2022-11-24T06:35:07.384Z,1.90
2022-11-24T06:36:07.409Z,1.80
2022-11-24T06:37:07.414Z,1.80
2022-11-24T06:38:07.437Z,1.90
2022-11-24T06:39:07.445Z,1.80
2022-11-24T06:40:07.465Z,2.00
2022-11-24T06:41:07.488Z,1.80
2022-11-24T06:42:07.490Z,1.90
2022-11-24T06:43:07.511Z,1.80
2022-11-24T06:44:07.520Z,1.70
2022-11-24T06:45:09.376Z,2.10
2022-11-24T06:46:07.627Z,2.10
2022-11-24T06:47:07.563Z,2.00
2022-11-24T06:48:07.588Z,2.00
2022-11-24T06:49:07.595Z,2.00
2022-11-24T06:50:07.632Z,2.10
2022-11-24T06:51:07.632Z,1.90
2022-11-24T06:52:07.647Z,2.10
2022-11-24T06:53:07.663Z,2.10
2022-11-24T06:54:07.669Z,2.10
2022-11-24T06:55:07.700Z,2.00
2022-11-24T06:56:12.301Z,1.90
2022-11-24T06:57:07.722Z,2.00
2022-11-24T06:58:07.730Z,2.20
2022-11-24T06:59:07.753Z,2.30
2022-11-24T07:00:07.784Z,2.30
2022-11-24T07:01:07.814Z,2.20
2022-11-24T07:02:07.791Z,2.30
2022-11-24T07:03:07.870Z,2.00
2022-11-24T07:04:07.818Z,2.10
2022-11-24T07:05:07.840Z,2.00
2022-11-24T07:06:07.871Z,2.00
2022-11-24T07:07:07.949Z,2.20
2022-11-24T07:08:09.321Z,2.20
2022-11-24T07:09:07.892Z,2.20
2022-11-24T07:10:07.914Z,2.20
2022-11-24T07:11:07.923Z,2.10
2022-11-24T07:12:07.937Z,2.30
2022-11-24T07:13:07.953Z,2.20
2022-11-24T07:14:07.968Z,2.30
2022-11-24T07:15:07.983Z,2.20
2022-11-24T07:16:08.049Z,2.10
2022-11-24T07:17:08.011Z,2.50
2022-11-24T07:18:08.035Z,2.30
2022-11-24T07:19:08.048Z,2.20
2022-11-24T07:20:08.058Z,2.30
2022-11-24T07:21:08.072Z,2.50
2022-11-24T07:22:08.112Z,2.40
2022-11-24T07:23:08.101Z,2.40
2022-11-24T07:24:08.122Z,2.40
2022-11-24T07:25:08.131Z,2.50
2022-11-24T07:26:08.154Z,2.50
2022-11-24T07:27:08.164Z,2.50
2022-11-24T07:28:08.182Z,2.50
2022-11-24T07:29:08.191Z,2.40
2022-11-24T07:30:08.215Z,2.50
2022-11-24T07:31:08.228Z,2.50
2022-11-24T07:32:08.286Z,2.70
2022-11-24T07:33:08.256Z,2.40
2022-11-24T07:34:08.274Z,2.50
2022-11-24T07:35:08.281Z,2.40
2022-11-24T07:36:08.301Z,2.60
2022-11-24T07:37:08.318Z,2.50
2022-11-24T07:38:08.347Z,2.70
2022-11-24T07:39:08.337Z,2.40
2022-11-24T07:40:08.361Z,2.40
2022-11-24T07:41:08.376Z,2.50
2022-11-24T07:42:08.386Z,2.40
2022-11-24T07:43:08.400Z,2.80
2022-11-24T07:44:08.414Z,2.70
2022-11-24T07:45:08.429Z,2.60
2022-11-24T07:46:08.570Z,2.60
2022-11-24T07:47:08.459Z,2.70
2022-11-24T07:48:08.472Z,2.50
2022-11-24T07:49:08.496Z,2.40
2022-11-24T07:50:08.510Z,2.50
2022-11-24T07:51:08.539Z,2.70
2022-11-24T07:52:08.542Z,2.80
2022-11-24T07:53:08.549Z,2.60
2022-11-24T07:54:08.591Z,2.90
2022-11-24T07:55:08.577Z,2.70
2022-11-24T07:56:08.598Z,3.10
2022-11-24T07:57:08.615Z,2.60
2022-11-24T07:58:08.628Z,2.60
2022-11-24T07:59:08.636Z,2.50
2022-11-24T08:00:08.656Z,2.70
2022-11-24T08:01:08.794Z,2.80
2022-11-24T08:02:08.736Z,2.70
2022-11-24T08:03:08.695Z,2.60
2022-11-24T08:04:08.770Z,2.70
2022-11-24T08:05:08.726Z,2.70
2022-11-24T08:06:27.401Z,2.60
2022-11-24T08:07:08.832Z,2.80
2022-11-24T08:08:08.777Z,2.50
2022-11-24T08:09:08.784Z,2.60
2022-11-24T08:10:08.826Z,2.60
2022-11-24T08:11:08.819Z,2.90
2022-11-24T08:12:08.835Z,2.90
2022-11-24T08:13:08.841Z,2.60
2022-11-24T08:14:08.870Z,2.60
2022-11-24T08:15:11.110Z,2.70
2022-11-24T08:16:08.977Z,2.90
2022-11-24T08:17:08.989Z,2.80
2022-11-24T08:18:08.916Z,2.80
2022-11-24T08:19:08.938Z,2.50
2022-11-24T08:20:08.953Z,2.90
2022-11-24T08:21:08.962Z,2.80
2022-11-24T08:22:08.974Z,2.90
2022-11-24T08:23:08.998Z,2.70
2022-11-24T08:24:09.006Z,2.80
2022-11-24T08:25:09.028Z,2.60
2022-11-24T08:26:09.058Z,2.50
2022-11-24T08:27:09.055Z,2.60
2022-11-24T08:28:09.064Z,2.60
2022-11-24T08:29:09.088Z,2.80
2022-11-24T08:30:09.103Z,2.50
2022-11-24T08:31:09.115Z,2.40
2022-11-24T08:32:09.172Z,2.90
2022-11-24T08:33:09.146Z,2.70
2022-11-24T08:34:09.160Z,2.80
2022-11-24T08:35:13.938Z,2.70
2022-11-24T08:36:09.188Z,2.70
2022-11-24T08:37:09.201Z,2.70
2022-11-24T08:38:09.224Z,2.70
2022-11-24T08:39:09.226Z,2.70
2022-11-24T08:40:09.242Z,2.50
2022-11-24T08:41:09.601Z,2.70
2022-11-24T08:42:09.300Z,2.80
2022-11-24T08:43:09.284Z,2.90
2022-11-24T08:44:09.306Z,2.80
2022-11-24T08:45:20.321Z,2.70
2022-11-24T08:46:09.374Z,2.90
2022-11-24T08:47:09.353Z,2.80
2022-11-24T08:48:09.359Z,2.70
2022-11-24T08:49:09.383Z,2.80
2022-11-24T08:50:09.389Z,2.80
2022-11-24T08:51:09.407Z,2.50
2022-11-24T08:52:09.430Z,2.80
2022-11-24T08:53:09.440Z,2.70
2022-11-24T08:54:09.455Z,2.70
2022-11-24T08:55:09.463Z,2.50
2022-11-24T08:56:09.513Z,2.70
2022-11-24T08:57:09.500Z,3.10
2022-11-24T08:58:09.530Z,2.50
2022-11-24T08:59:09.576Z,2.80
2022-11-24T09:00:09.536Z,2.90
2022-11-24T09:01:09.680Z,2.60
2022-11-24T09:02:09.573Z,2.70
2022-11-24T09:03:09.582Z,2.80
2022-11-24T09:04:09.778Z,2.70
2022-11-24T09:05:28.732Z,3.10
2022-11-24T09:06:09.624Z,2.90
2022-11-24T09:07:09.716Z,2.70
2022-11-24T09:08:09.660Z,2.80
2022-11-24T09:09:09.667Z,2.70
2022-11-24T09:10:09.683Z,2.70
2022-11-24T09:11:09.705Z,2.70
2022-11-24T09:12:14.365Z,2.80
2022-11-24T09:13:09.727Z,2.70
2022-11-24T09:14:09.768Z,3.20
2022-11-24T09:15:09.762Z,2.80
2022-11-24T09:16:09.771Z,3.00
2022-11-24T09:17:09.848Z,2.80
2022-11-24T09:18:09.806Z,3.00
2022-11-24T09:19:09.815Z,2.70
2022-11-24T09:20:09.829Z,2.70
2022-11-24T09:21:09.852Z,2.70
2022-11-24T09:22:09.860Z,3.00
2022-11-24T09:23:09.873Z,2.70
2022-11-24T09:24:09.897Z,2.80
2022-11-24T09:25:09.912Z,2.70
2022-11-24T09:26:09.925Z,2.80
2022-11-24T09:27:09.931Z,3.00
2022-11-24T09:28:09.953Z,2.90
2022-11-24T09:29:09.989Z,2.80
2022-11-24T09:30:10.007Z,2.80
2022-11-24T09:31:10.045Z,2.70
2022-11-24T09:32:10.007Z,2.70
2022-11-24T09:33:10.028Z,2.70
2022-11-24T09:34:10.037Z,2.80
2022-11-24T09:35:10.059Z,2.70
2022-11-24T09:36:10.074Z,2.60
2022-11-24T09:37:10.092Z,2.70
2022-11-24T09:38:10.097Z,2.90
2022-11-24T09:39:10.107Z,2.90
2022-11-24T09:40:10.125Z,2.70
2022-11-24T09:41:10.143Z,2.30
2022-11-24T09:42:10.161Z,2.60
2022-11-24T09:43:10.174Z,2.70
2022-11-24T09:44:10.185Z,2.60
2022-11-24T09:45:10.203Z,2.60
2022-11-24T09:46:10.347Z,2.80
2022-11-24T09:47:10.227Z,2.60
2022-11-24T09:48:10.246Z,2.50
2022-11-24T09:49:10.271Z,2.70
2022-11-24T09:50:10.274Z,2.80
2022-11-24T09:51:10.291Z,2.50
2022-11-24T09:52:10.301Z,2.80
2022-11-24T09:53:10.335Z,2.80
2022-11-24T09:54:10.337Z,2.50
2022-11-24T09:55:10.359Z,2.80
2022-11-24T09:56:10.366Z,2.60
2022-11-24T09:57:10.380Z,2.60
2022-11-24T09:58:10.397Z,2.50
2022-11-24T09:59:10.410Z,2.90
2022-11-24T10:00:10.417Z,2.70
2022-11-24T10:01:10.470Z,2.80
2022-11-24T10:02:10.475Z,2.60
2022-11-24T10:03:10.471Z,2.70
2022-11-24T10:04:10.475Z,2.70
2022-11-24T10:05:10.577Z,2.90
2022-11-24T10:06:10.511Z,2.60
2022-11-24T10:07:10.575Z,2.80
2022-11-24T10:08:10.532Z,2.40
2022-11-24T10:09:10.551Z,2.60
2022-11-24T10:10:10.572Z,2.50
2022-11-24T10:11:10.585Z,2.70
2022-11-24T10:12:10.601Z,3.00
2022-11-24T10:13:10.615Z,2.80
2022-11-24T10:14:10.631Z,2.70
2022-11-24T10:15:10.645Z,2.60
2022-11-24T10:16:10.662Z,2.60
2022-11-24T10:17:10.677Z,2.60
2022-11-24T10:18:16.494Z,2.50
2022-11-24T10:19:10.703Z,2.50
2022-11-24T10:20:10.719Z,2.80
2022-11-24T10:21:10.732Z,2.70
2022-11-24T10:22:10.747Z,2.80
2022-11-24T10:23:10.763Z,2.50
2022-11-24T10:24:10.779Z,2.60
2022-11-24T10:25:10.786Z,2.50
2022-11-24T10:26:10.814Z,2.50
2022-11-24T10:27:10.852Z,2.60
2022-11-24T10:28:10.834Z,2.70
2022-11-24T10:29:11.349Z,2.60
2022-11-24T10:30:10.867Z,2.40
2022-11-24T10:31:10.899Z,2.40
2022-11-24T10:32:10.909Z,2.40
2022-11-24T10:33:10.911Z,2.40
2022-11-24T10:34:10.938Z,2.50
2022-11-24T10:35:10.935Z,2.60
2022-11-24T10:36:10.947Z,2.50
2022-11-24T10:37:10.970Z,2.50
2022-11-24T10:38:10.982Z,2.50
2022-11-24T10:39:10.998Z,2.50
2022-11-24T10:40:32.967Z,2.50
2022-11-24T10:41:11.020Z,2.50
2022-11-24T10:42:12.244Z,2.60
2022-11-24T10:43:11.057Z,2.40
2022-11-24T10:44:11.070Z,2.60
2022-11-24T10:45:11.079Z,2.30
2022-11-24T10:46:11.228Z,2.60
2022-11-24T10:47:11.115Z,2.30
2022-11-24T10:48:11.135Z,2.50
2022-11-24T10:49:11.144Z,2.30
2022-11-24T10:50:11.177Z,2.40
2022-11-24T10:51:11.165Z,2.50
2022-11-24T10:52:11.181Z,2.10
2022-11-24T10:53:11.206Z,2.40
2022-11-24T10:54:11.220Z,2.60
2022-11-24T10:55:11.222Z,2.40
2022-11-24T10:56:11.248Z,2.30
2022-11-24T10:57:11.253Z,2.40
2022-11-24T10:58:11.277Z,2.50
2022-11-24T10:59:11.289Z,2.50
2022-11-24T11:00:11.306Z,2.40
2022-11-24T11:01:11.388Z,2.40
2022-11-24T11:02:11.419Z,2.50
2022-11-24T11:03:11.382Z,2.50
2022-11-24T11:04:11.363Z,2.50
2022-11-24T11:05:11.379Z,2.30
2022-11-24T11:06:11.411Z,2.70
2022-11-24T11:07:11.461Z,2.20
2022-11-24T11:08:11.484Z,2.20
2022-11-24T11:09:11.430Z,2.40
2022-11-24T11:10:11.445Z,2.40
2022-11-24T11:11:11.465Z,2.10
2022-11-24T11:12:42.158Z,2.10
2022-11-24T11:13:11.489Z,2.20
2022-11-24T11:14:11.514Z,2.40
2022-11-24T11:15:11.529Z,2.10
2022-11-24T11:16:11.619Z,2.20
2022-11-24T11:17:11.553Z,2.20
2022-11-24T11:18:11.561Z,2.20
2022-11-24T11:19:33.289Z,2.30
2022-11-24T11:20:11.591Z,2.30
2022-11-24T11:21:11.612Z,2.20
2022-11-24T11:22:11.654Z,2.40
2022-11-24T11:23:11.641Z,2.10
2022-11-24T11:24:11.650Z,2.20
2022-11-24T11:25:11.673Z,2.60
2022-11-24T11:26:11.680Z,2.20
2022-11-24T11:27:11.701Z,2.40
2022-11-24T11:28:17.677Z,2.40
2022-11-24T11:31:16.663Z,2.20
2022-11-24T11:34:18.429Z,2.40
2022-11-24T11:35:11.811Z,2.10
2022-11-24T11:36:11.911Z,2.00
2022-11-24T11:37:11.855Z,2.20
2022-11-24T11:38:11.879Z,2.20
2022-11-24T11:39:11.877Z,2.30
2022-11-24T11:40:12.953Z,2.20
2022-11-24T11:41:11.899Z,2.10
2022-11-24T11:42:25.678Z,2.30
2022-11-24T11:43:11.930Z,2.10
2022-11-24T11:44:11.949Z,2.10
2022-11-24T11:45:11.990Z,2.10
2022-11-24T11:46:12.203Z,2.20
2022-11-24T11:47:12.133Z,2.20
2022-11-24T11:48:12.013Z,2.30
2022-11-24T11:49:12.016Z,2.30
2022-11-24T11:50:12.040Z,2.20
2022-11-24T11:51:27.584Z,2.10
2022-11-24T11:52:12.063Z,2.20
2022-11-24T11:53:12.084Z,1.90
2022-11-24T11:54:12.138Z,2.20
2022-11-24T11:55:12.104Z,2.20
2022-11-24T11:56:12.120Z,2.10
2022-11-24T11:57:12.141Z,2.20
2022-11-24T11:58:12.158Z,2.10
2022-11-24T11:59:12.172Z,2.20
2022-11-24T12:00:12.237Z,2.60
2022-11-24T12:01:12.191Z,2.30
2022-11-24T12:02:12.306Z,2.30
2022-11-24T12:03:12.360Z,2.20
2022-11-24T12:04:12.320Z,2.20
2022-11-24T12:05:12.263Z,2.20
2022-11-24T12:06:12.266Z,2.10
2022-11-24T12:07:12.301Z,2.30
2022-11-24T12:08:17.551Z,2.10
2022-11-24T12:09:20.181Z,2.10
2022-11-24T12:10:12.393Z,1.80
2022-11-24T12:11:12.338Z,2.30
2022-11-24T12:12:12.355Z,2.10
2022-11-24T12:13:12.369Z,2.20
2022-11-24T12:14:12.384Z,1.90
2022-11-24T12:15:12.411Z,2.30
2022-11-24T12:16:12.435Z,2.10
2022-11-24T12:17:12.428Z,2.00
2022-11-24T12:18:33.120Z,2.20
2022-11-24T12:19:12.459Z,1.90
2022-11-24T12:20:12.567Z,2.20
2022-11-24T12:21:12.489Z,2.10
2022-11-24T12:22:12.509Z,2.30
2022-11-24T12:23:12.517Z,2.20
2022-11-24T12:24:12.645Z,2.30
2022-11-24T12:25:12.553Z,1.80
2022-11-24T12:26:12.594Z,2.00
2022-11-24T12:27:14.804Z,2.00
2022-11-24T12:28:12.592Z,1.90
2022-11-24T12:29:12.613Z,2.10
2022-11-24T12:30:12.795Z,2.00
2022-11-24T12:31:12.786Z,2.20
2022-11-24T12:32:12.653Z,1.90
2022-11-24T12:33:12.687Z,2.10
2022-11-24T12:34:12.687Z,2.10
2022-11-24T12:35:12.707Z,2.10
2022-11-24T12:36:12.717Z,1.90
2022-11-24T12:37:12.725Z,2.00
2022-11-24T12:38:12.748Z,2.00
2022-11-24T12:39:12.769Z,1.90
2022-11-24T12:40:12.771Z,1.90
2022-11-24T12:41:39.848Z,1.90
2022-11-24T12:42:12.819Z,1.90
2022-11-24T12:43:12.813Z,1.80
2022-11-24T12:44:12.840Z,2.00
2022-11-24T12:45:12.844Z,1.90
2022-11-24T12:46:17.219Z,2.00
2022-11-24T12:47:12.922Z,1.80
2022-11-24T12:48:12.888Z,1.70
2022-11-24T12:49:12.905Z,2.00
2022-11-24T12:50:12.922Z,2.20
2022-11-24T12:51:12.945Z,1.70
2022-11-24T12:52:12.948Z,1.70
2022-11-24T12:53:12.963Z,1.90
2022-11-24T12:54:12.981Z,1.80
2022-11-24T12:55:12.993Z,2.00
2022-11-24T12:56:13.006Z,1.70
2022-11-24T12:57:13.022Z,2.00
2022-11-24T12:58:13.058Z,1.90
2022-11-24T12:59:13.058Z,2.00
2022-11-24T13:00:13.074Z,1.90
2022-11-24T13:02:13.238Z,1.70
2022-11-24T13:03:13.162Z,2.00
2022-11-24T13:04:13.138Z,1.90
2022-11-24T13:05:13.150Z,2.00
2022-11-24T13:06:13.165Z,2.00
2022-11-24T13:07:13.265Z,1.70
2022-11-24T13:08:13.185Z,1.80
2022-11-24T13:09:13.202Z,1.80
2022-11-24T13:10:13.217Z,1.90
2022-11-24T13:11:13.236Z,1.90
2022-11-24T13:12:13.252Z,1.80
2022-11-24T13:13:13.338Z,1.60
2022-11-24T13:14:13.304Z,1.90
2022-11-24T13:15:36.222Z,1.70
2022-11-24T13:16:35.248Z,1.80
2022-11-24T13:17:29.584Z,1.70
2022-11-24T13:18:13.473Z,1.60
2022-11-24T13:19:13.450Z,1.80
2022-11-24T13:20:13.366Z,1.70
2022-11-24T13:21:13.382Z,1.90
2022-11-24T13:22:13.396Z,1.70
2022-11-24T13:23:15.016Z,1.90